Midway, Georgia
Current Conditions -  °F | °C
As of 12:58 PM on Saturday 25 Oct 2014 (Local Time) from KLHW Reporting Station
Clear Clear  
Wind Chill: 74°   Ceiling: Unl
Heat Index: 74°   Visibility: 8mi
Dew Point: 47°   Wind: 0mph
Humidity: 38%   Direction: NA
Pressure: 30"   Gusts: NA
Location:  31.81°N, 81.43°W
Report Text: KLHW 251658Z AUTO 00000KT 8SM CLR 23/08 A3000 RMK AO2 SLP162 T02330082
Loading
Personal Weather Stations






























Interactive Weather Map
Tropical Storm Tracking
New forecast layout! Learn more

10-Day Weather Forecast

Advertisements
Track Severe Weather on mobile